Aérodrome :
LOGIN :

S'inscrire | Disclaimer

   EN    FR    IT 

 










Légende :    VFR   VFR Marginal   IFR   IFR Intensif   IFR Très Intensif
Visi : 
Plafond : 
>= 8 km
>= 3000ft
5 à 8 km
1000 à 3000 ft
1500m à 5 km
500 à 1000 ft
800 à 1500m
200 à 500 ft
< 800m
< 200 ft
Symboles :   Orages  Brouillard  Fortes neiges  Fortes précipitations  Vent > 20 kt
SIGMETs :   Divers  Orages  Givrage  Turbulence  Onde Orograph.  Cendres Volcan.







- Altitude de l'aérodrome : -11 ft
- Code IATA : AMS


EHAM - Amsterdam Schiphol

DERNIER METAR :
  • 240425Z 26005KT 230V290 8000 MIFG FEW008 SCT045 18/17 Q1013 NOSIG

METARs EXPIRÉS :
  • 240355Z 22005KT 9999 FEW009 SCT045 18/17 Q1013 NOSIG
  • 240325Z 22005KT 190V250 9999 FEW009 SCT044 18/17 Q1013 NOSIG
  • 240255Z 23005KT 200V260 9999 FEW007 SCT013 18/17 Q1013 NOSIG
  • 240225Z 22007KT 9999 FEW010 SCT015 18/17 Q1013 NOSIG
  • 240155Z 22007KT 9999 FEW009 SCT013 18/17 Q1013 NOSIG

TAF TAF EHAM
Valide du 24 à 00h jusqu'au 25 à 06h UTC


232238Z 2400/2506 25006KT 9999 SCT030
BECMG 2408/2411 26011KT
BECMG 2416/2419 23005KT CAVOK
PROB30
TEMPO 2501/2506 3500 MIFG
Pas de NOTAMs connus pour ce terrain.



MET'MAP, la Météo Aéronautique d'un coup d'oeil ! - Copyright ORBIFLY Décembre 2007 - Disclaimer

ORBIFLY MET'MAP TEAM :

Programmation & Développement : Alexandra Zaïnal
Conception & Développement : Baudouin d'Aumeries
Co-Programmation & Développement : Marc-Olivier Méhu
Soutien technique & logistique : Manuel Goepfert

Contact : metmap@orbifly.com




SOURCES & CREDITS :

   NOAA